createdAt,value
2018-06-10T00:00:50.026Z,21.94
2018-06-10T00:01:49.989Z,21.94
2018-06-10T00:02:49.973Z,22.02
2018-06-10T00:03:49.965Z,21.92
2018-06-10T00:04:49.973Z,21.96
2018-06-10T00:05:49.972Z,21.88
2018-06-10T00:06:49.991Z,21.75
2018-06-10T00:07:49.948Z,21.79
2018-06-10T00:08:49.947Z,21.74
2018-06-10T00:09:49.944Z,21.79
2018-06-10T00:10:49.942Z,21.79
2018-06-10T00:11:50.071Z,21.80
2018-06-10T00:12:49.930Z,21.64
2018-06-10T00:13:49.911Z,21.74
2018-06-10T00:14:49.911Z,21.74
2018-06-10T00:15:49.911Z,21.72
2018-06-10T00:16:49.901Z,21.82
2018-06-10T00:17:49.912Z,21.79
2018-06-10T00:18:49.925Z,21.79
2018-06-10T00:19:49.890Z,21.79
2018-06-10T00:20:49.874Z,21.74
2018-06-10T00:21:49.873Z,21.74
2018-06-10T00:22:49.871Z,21.71
2018-06-10T00:23:49.863Z,21.72
2018-06-10T00:24:49.881Z,21.69
2018-06-10T00:25:49.847Z,21.69
2018-06-10T00:26:49.845Z,21.74
2018-06-10T00:27:49.848Z,21.64
2018-06-10T00:28:49.830Z,21.65
2018-06-10T00:29:49.976Z,21.59
2018-06-10T00:30:49.830Z,21.52
2018-06-10T00:31:49.820Z,21.46
2018-06-10T00:32:49.811Z,21.47
2018-06-10T00:33:49.806Z,21.43
2018-06-10T00:34:49.792Z,21.53
2018-06-10T00:35:49.809Z,21.52
2018-06-10T00:36:49.796Z,21.54
2018-06-10T00:37:51.845Z,21.56
2018-06-10T00:38:49.769Z,21.49
2018-06-10T00:39:49.771Z,21.54
2018-06-10T00:40:49.798Z,21.50
2018-06-10T00:41:49.769Z,21.44
2018-06-10T00:42:49.758Z,21.42
2018-06-10T00:43:49.749Z,21.34
2018-06-10T00:44:49.747Z,21.54
2018-06-10T00:45:49.872Z,21.42
2018-06-10T00:46:49.729Z,21.34
2018-06-10T00:47:49.727Z,21.31
2018-06-10T00:48:49.723Z,21.28
2018-06-10T00:49:49.711Z,21.27
2018-06-10T00:50:49.714Z,21.27
2018-06-10T00:51:49.744Z,21.27
2018-06-10T00:52:49.701Z,21.24
2018-06-10T00:53:49.692Z,21.28
2018-06-10T00:54:49.685Z,21.25
2018-06-10T00:55:49.674Z,21.16
2018-06-10T00:56:49.673Z,21.17
2018-06-10T00:57:49.683Z,21.13
2018-06-10T00:58:49.653Z,21.17
2018-06-10T00:59:49.647Z,21.16
2018-06-10T01:00:49.649Z,21.16
2018-06-10T01:01:49.644Z,21.17
2018-06-10T01:02:49.704Z,21.09
2018-06-10T01:03:49.636Z,21.10
2018-06-10T01:04:49.632Z,21.03
2018-06-10T01:05:49.651Z,21.10
2018-06-10T01:06:49.619Z,20.99
2018-06-10T01:07:49.607Z,20.99
2018-06-10T01:08:49.629Z,20.97
2018-06-10T01:09:49.595Z,20.94
2018-06-10T01:10:49.595Z,20.95
2018-06-10T01:11:49.588Z,20.97
2018-06-10T01:12:49.575Z,20.91
2018-06-10T01:13:50.194Z,20.92
2018-06-10T01:14:49.564Z,20.92
2018-06-10T01:15:49.687Z,20.92
2018-06-10T01:16:49.554Z,20.89
2018-06-10T01:17:49.543Z,20.79
2018-06-10T01:18:49.578Z,20.77
2018-06-10T01:19:49.543Z,20.80
2018-06-10T01:20:49.526Z,20.72
2018-06-10T01:21:49.525Z,20.76
2018-06-10T01:22:49.521Z,20.72
2018-06-10T01:23:49.510Z,20.69
2018-06-10T01:24:49.645Z,20.69
2018-06-10T01:25:49.499Z,20.67
2018-06-10T01:26:49.489Z,20.67
2018-06-10T01:27:49.495Z,20.67
2018-06-10T01:28:49.465Z,20.66
2018-06-10T01:29:49.467Z,20.73
2018-06-10T01:30:49.506Z,20.67
2018-06-10T01:31:49.459Z,20.62
2018-06-10T01:32:49.447Z,20.62
2018-06-10T01:33:49.448Z,20.54
2018-06-10T01:34:49.444Z,20.58
2018-06-10T01:35:49.789Z,20.59
2018-06-10T01:36:49.429Z,20.59
2018-06-10T01:37:49.418Z,20.61
2018-06-10T01:38:49.416Z,20.55
2018-06-10T01:39:49.407Z,20.52
2018-06-10T01:40:49.402Z,20.54
2018-06-10T01:41:49.429Z,20.47
2018-06-10T01:42:50.219Z,20.52
2018-06-10T01:43:49.391Z,20.47
2018-06-10T01:44:49.368Z,20.36
2018-06-10T01:45:49.390Z,20.38
2018-06-10T01:46:49.392Z,20.29
2018-06-10T01:47:49.362Z,20.31
2018-06-10T01:48:49.358Z,20.32
2018-06-10T01:49:49.345Z,20.26
2018-06-10T01:50:49.331Z,20.24
2018-06-10T01:51:49.365Z,20.23
2018-06-10T01:52:49.321Z,20.29
2018-06-10T01:53:49.312Z,20.29
2018-06-10T01:54:49.314Z,20.20
2018-06-10T01:55:49.308Z,20.29
2018-06-10T01:56:49.302Z,20.18
2018-06-10T01:57:49.297Z,20.29
2018-06-10T01:58:49.314Z,20.32
2018-06-10T01:59:49.271Z,20.33
2018-06-10T02:00:49.271Z,20.32
2018-06-10T02:01:49.268Z,20.31
2018-06-10T02:02:49.297Z,20.28
2018-06-10T02:03:49.696Z,20.21
2018-06-10T02:04:49.242Z,20.29
2018-06-10T02:05:49.246Z,20.21
2018-06-10T02:06:49.236Z,20.16
2018-06-10T02:07:49.218Z,20.28
2018-06-10T02:08:49.231Z,20.13
2018-06-10T02:09:49.209Z,20.08
2018-06-10T02:10:49.205Z,20.10
2018-06-10T02:11:49.363Z,20.02
2018-06-10T02:12:49.197Z,20.11
2018-06-10T02:13:49.328Z,20.10
2018-06-10T02:14:49.183Z,20.03
2018-06-10T02:15:49.172Z,20.13
2018-06-10T02:16:49.177Z,20.03
2018-06-10T02:17:49.163Z,20.10
2018-06-10T02:18:49.152Z,19.99
2018-06-10T02:19:49.163Z,19.99
2018-06-10T02:20:49.146Z,20.05
2018-06-10T02:21:49.135Z,19.98
2018-06-10T02:22:49.138Z,19.98
2018-06-10T02:23:49.153Z,19.99
2018-06-10T02:24:49.113Z,19.99
2018-06-10T02:25:49.133Z,20.01
2018-06-10T02:26:49.106Z,20.02
2018-06-10T02:27:49.087Z,20.05
2018-06-10T02:28:49.087Z,19.99
2018-06-10T02:29:49.077Z,19.98
2018-06-10T02:30:49.261Z,20.06
2018-06-10T02:31:49.057Z,19.99
2018-06-10T02:32:49.054Z,20.01
2018-06-10T02:33:49.053Z,20.02
2018-06-10T02:34:49.735Z,20.01
2018-06-10T02:35:49.039Z,20.01
2018-06-10T02:36:49.041Z,20.02
2018-06-10T02:37:49.027Z,19.99
2018-06-10T02:38:49.010Z,20.08
2018-06-10T02:39:49.004Z,20.10
2018-06-10T02:40:49.004Z,20.10
2018-06-10T02:41:49.026Z,20.10
2018-06-10T02:42:49.024Z,20.14
2018-06-10T02:43:48.983Z,20.06
2018-06-10T02:44:48.975Z,20.02
2018-06-10T02:45:48.970Z,20.01
2018-06-10T02:46:48.965Z,20.02
2018-06-10T02:47:48.997Z,19.99
2018-06-10T02:48:48.961Z,19.98
2018-06-10T02:49:48.943Z,19.96
2018-06-10T02:50:48.970Z,20.01
2018-06-10T02:51:48.929Z,19.98
2018-06-10T02:52:49.003Z,20.10
2018-06-10T02:53:48.935Z,20.10
2018-06-10T02:54:48.907Z,19.98
2018-06-10T02:55:48.905Z,19.95
2018-06-10T02:56:48.899Z,19.87
2018-06-10T02:57:48.880Z,19.91
2018-06-10T02:58:48.890Z,19.92
2018-06-10T02:59:48.882Z,19.92
2018-06-10T03:00:48.877Z,19.94
2018-06-10T03:01:48.866Z,20.02
2018-06-10T03:02:48.846Z,20.05
2018-06-10T03:03:48.911Z,20.01
2018-06-10T03:04:48.837Z,20.05
2018-06-10T03:05:48.828Z,19.98
2018-06-10T03:06:48.826Z,19.99
2018-06-10T03:07:48.831Z,19.99
2018-06-10T03:08:48.804Z,20.05
2018-06-10T03:09:48.920Z,19.96
2018-06-10T03:10:48.794Z,20.03
2018-06-10T03:11:48.794Z,20.02
2018-06-10T03:12:48.798Z,19.94
2018-06-10T03:13:48.827Z,19.86
2018-06-10T03:14:48.777Z,19.76
2018-06-10T03:15:48.810Z,19.74
2018-06-10T03:16:49.001Z,19.71
2018-06-10T03:17:48.763Z,19.65
2018-06-10T03:18:48.748Z,19.54
2018-06-10T03:19:48.743Z,19.46
2018-06-10T03:20:48.769Z,19.47
2018-06-10T03:21:48.743Z,19.33
2018-06-10T03:22:48.755Z,19.25
2018-06-10T03:23:48.758Z,19.22
2018-06-10T03:24:48.775Z,19.31
2018-06-10T03:25:48.723Z,19.22
2018-06-10T03:26:48.702Z,19.13
2018-06-10T03:27:48.714Z,19.10
2018-06-10T03:28:48.681Z,19.08
2018-06-10T03:29:48.677Z,19.06
2018-06-10T03:30:48.672Z,19.04
2018-06-10T03:31:48.660Z,18.95
2018-06-10T03:47:17.375Z,18.88
2018-06-10T03:47:17.885Z,18.82
2018-06-10T03:48:26.916Z,18.82
2018-06-10T03:49:17.899Z,18.78
2018-06-10T03:50:17.869Z,18.72
2018-06-10T03:51:17.859Z,18.84
2018-06-10T03:52:17.890Z,18.80
2018-06-10T03:53:17.844Z,18.84
2018-06-10T03:54:18.042Z,18.81
2018-06-10T03:55:17.820Z,18.84
2018-06-10T03:56:17.863Z,18.69
2018-06-10T03:57:17.875Z,18.70
2018-06-10T03:58:17.959Z,18.76
2018-06-10T03:59:18.916Z,18.73
2018-06-10T04:01:00.432Z,18.69
2018-06-10T04:01:17.775Z,18.67
2018-06-10T04:02:17.768Z,18.66
2018-06-10T04:03:17.764Z,18.75
2018-06-10T04:04:17.830Z,18.70
2018-06-10T04:05:17.765Z,18.72
2018-06-10T04:06:17.740Z,18.69
2018-06-10T04:07:17.733Z,18.80
2018-06-10T04:08:17.719Z,18.82
2018-06-10T04:09:17.754Z,18.81
2018-06-10T04:10:17.954Z,18.81
2018-06-10T04:11:17.697Z,18.92
2018-06-10T04:12:17.697Z,18.91
2018-06-10T04:13:18.058Z,18.92
2018-06-10T04:14:17.696Z,19.00
2018-06-10T04:15:17.689Z,19.02
2018-06-10T04:16:17.684Z,19.06
2018-06-10T04:17:17.660Z,18.92
2018-06-10T06:08:57.314Z,18.81
2018-06-10T08:09:58.261Z,20.21
2018-06-10T08:44:03.190Z,20.67
2018-06-10T08:45:02.597Z,20.69
2018-06-10T08:46:01.836Z,20.70
2018-06-10T08:47:02.003Z,20.67
2018-06-10T08:50:42.538Z,20.69
2018-06-10T08:51:42.431Z,20.70
2018-06-10T08:52:42.474Z,20.64
2018-06-10T08:53:43.331Z,20.69
2018-06-10T08:54:43.223Z,20.74
2018-06-10T08:55:42.881Z,20.74
2018-06-10T08:56:43.016Z,20.67
2018-06-10T09:34:36.004Z,20.87
2018-06-10T09:35:09.683Z,20.89
2018-06-10T09:36:08.966Z,20.88
2018-06-10T09:37:09.139Z,20.85
2018-06-10T09:38:08.967Z,20.98
2018-06-10T09:39:08.975Z,20.88
2018-06-10T09:40:09.168Z,20.94
2018-06-10T09:41:08.987Z,20.98
2018-06-10T09:42:09.246Z,21.03
2018-06-10T09:43:08.948Z,20.99
2018-06-10T09:44:16.736Z,20.99
2018-06-10T09:45:09.708Z,21.10
2018-06-10T09:46:08.952Z,21.12
2018-06-10T09:47:10.709Z,21.14
2018-06-10T09:48:08.914Z,21.16
2018-06-10T09:49:08.944Z,21.16
2018-06-10T09:50:09.591Z,21.22
2018-06-10T09:51:09.101Z,21.24
2018-06-10T09:52:09.067Z,21.40
2018-06-10T09:53:08.936Z,21.35
2018-06-10T09:54:08.883Z,21.52
2018-06-10T09:55:10.197Z,21.49
2018-06-10T09:56:09.004Z,21.64
2018-06-10T09:57:09.193Z,21.74
2018-06-10T09:58:08.908Z,21.83
2018-06-10T09:59:23.345Z,22.07
2018-06-10T10:00:08.851Z,22.14
2018-06-10T10:01:08.832Z,22.10
2018-06-10T10:02:08.823Z,21.98
2018-06-10T10:03:09.734Z,21.91
2018-06-10T10:04:10.348Z,21.83
2018-06-10T10:05:09.483Z,21.83
2018-06-10T11:00:57.243Z,21.61
2018-06-10T11:07:51.789Z,21.40
2018-06-10T11:08:15.945Z,21.50
2018-06-10T11:09:15.016Z,21.46
2018-06-10T11:10:15.101Z,21.43
2018-06-10T11:11:15.018Z,21.50
2018-06-10T11:12:15.197Z,21.44
2018-06-10T11:13:14.992Z,21.38
2018-06-10T11:14:14.991Z,21.46
2018-06-10T11:15:15.101Z,21.35
2018-06-10T11:16:14.995Z,21.27
2018-06-10T11:17:14.992Z,21.37
2018-06-10T11:18:14.946Z,21.29
2018-06-10T11:19:14.987Z,21.31
2018-06-10T11:20:14.969Z,21.21
2018-06-10T11:21:15.013Z,21.17
2018-06-10T11:22:14.920Z,21.16
2018-06-10T11:23:14.938Z,21.13
2018-06-10T11:24:14.925Z,21.04
2018-06-10T11:25:16.075Z,21.10
2018-06-10T11:26:14.899Z,21.10
2018-06-10T11:27:14.931Z,21.13
2018-06-10T11:28:15.014Z,21.10
2018-06-10T11:29:14.885Z,21.13
2018-06-10T11:30:14.965Z,20.94
2018-06-10T11:31:14.904Z,21.04
2018-06-10T11:32:14.868Z,20.97
2018-06-10T11:33:14.937Z,20.97
2018-06-10T11:34:14.855Z,20.99
2018-06-10T11:35:15.559Z,21.06
2018-06-10T11:36:15.474Z,21.01
2018-06-10T11:37:14.827Z,20.91
2018-06-10T11:38:16.400Z,20.94
2018-06-10T11:39:14.824Z,20.97
2018-06-10T11:40:14.822Z,21.03
2018-06-10T11:41:15.170Z,21.04
2018-06-10T11:42:16.430Z,20.99
2018-06-10T12:02:13.064Z,21.42
2018-06-10T12:02:13.591Z,21.32
2018-06-10T12:14:49.415Z,21.90
2018-06-10T12:46:00.786Z,22.51
2018-06-10T12:46:59.146Z,22.36
2018-06-10T12:47:59.018Z,22.37
2018-06-10T12:48:59.089Z,22.37
2018-06-10T12:49:59.027Z,22.40
2018-06-10T12:50:59.035Z,22.35
2018-06-10T12:51:58.998Z,22.35
2018-06-10T12:53:00.041Z,22.27
2018-06-10T12:53:58.989Z,22.30
2018-06-10T12:54:58.987Z,22.24
2018-06-10T12:57:30.343Z,22.25
2018-06-10T12:57:57.911Z,22.28
2018-06-10T12:58:30.838Z,22.14
2018-06-10T13:04:01.462Z,22.25
2018-06-10T13:04:57.521Z,22.31
2018-06-10T13:05:57.521Z,22.35
2018-06-10T13:06:57.812Z,22.36
2018-06-10T13:08:09.267Z,22.39
2018-06-10T13:08:57.510Z,22.37
2018-06-10T13:09:57.500Z,22.39
2018-06-10T13:10:57.512Z,22.52
2018-06-10T13:14:50.712Z,22.49
2018-06-10T13:15:50.058Z,22.46
2018-06-10T13:16:50.044Z,22.47
2018-06-10T13:17:50.053Z,22.47
2018-06-10T13:18:50.056Z,22.42
2018-06-10T13:19:50.046Z,22.40
2018-06-10T13:20:50.066Z,22.42
2018-06-10T13:21:50.056Z,22.42
2018-06-10T13:22:50.025Z,22.47
2018-06-10T13:23:50.053Z,22.46
2018-06-10T13:24:50.029Z,22.42
2018-06-10T13:25:50.052Z,22.47
2018-06-10T13:26:50.012Z,22.40
2018-06-10T13:27:50.008Z,22.49
2018-06-10T13:28:50.039Z,22.42
2018-06-10T13:29:49.996Z,22.49
2018-06-10T13:30:49.995Z,22.42
2018-06-10T13:31:50.016Z,22.47
2018-06-10T13:32:49.989Z,22.54
2018-06-10T13:36:03.952Z,22.60
2018-06-10T13:37:03.962Z,22.64
2018-06-10T13:38:18.618Z,22.65
2018-06-10T13:39:04.599Z,22.61
2018-06-10T13:46:35.126Z,22.42
2018-06-10T13:46:35.577Z,22.37
2018-06-10T13:47:35.480Z,22.39
2018-06-10T13:48:35.516Z,22.36
2018-06-10T13:54:00.098Z,22.49
2018-06-10T13:54:34.510Z,22.42
2018-06-10T13:55:00.609Z,22.47
2018-06-10T13:56:00.743Z,22.46
2018-06-10T13:57:00.729Z,22.55
2018-06-10T13:58:01.429Z,22.62
2018-06-10T14:01:24.659Z,22.85
2018-06-10T14:29:27.335Z,23.01
2018-06-10T14:30:03.966Z,22.92
2018-06-10T14:40:50.827Z,23.25
2018-06-10T14:41:47.501Z,23.39
2018-06-10T14:42:47.518Z,23.38
2018-06-10T14:43:47.504Z,23.33
2018-06-10T14:44:47.660Z,23.28
2018-06-10T14:45:47.517Z,23.27
2018-06-10T14:46:47.499Z,23.25
2018-06-10T14:47:47.522Z,23.23
2018-06-10T14:48:47.477Z,23.07
2018-06-10T14:49:48.319Z,23.09
2018-06-10T14:50:47.513Z,23.15
2018-06-10T14:51:47.462Z,23.22
2018-06-10T14:52:47.876Z,23.15
2018-06-10T14:53:55.409Z,23.23
2018-06-10T14:54:47.444Z,23.27
2018-06-10T14:55:47.471Z,23.27
2018-06-10T14:56:47.433Z,23.32
2018-06-10T14:57:47.490Z,23.15
2018-06-10T14:58:47.510Z,23.23
2018-06-10T14:59:47.650Z,23.32
2018-06-10T15:00:47.461Z,23.40
2018-06-10T15:01:47.420Z,23.47
2018-06-10T15:02:48.287Z,23.53
2018-06-10T15:09:24.898Z,23.58
2018-06-10T15:09:33.897Z,23.60
2018-06-10T15:10:34.098Z,23.66
2018-06-10T15:15:08.246Z,23.66
2018-06-10T15:16:06.501Z,23.69
2018-06-10T15:17:06.453Z,23.70
2018-06-10T15:18:06.624Z,23.68
2018-06-10T15:19:06.485Z,23.63
2018-06-10T15:20:06.947Z,23.53
2018-06-10T15:21:06.599Z,23.61
2018-06-10T15:22:06.499Z,23.57
2018-06-10T15:23:06.550Z,23.51
2018-06-10T15:24:06.826Z,23.55
2018-06-10T15:25:06.422Z,23.65
2018-06-10T15:27:22.342Z,23.65
2018-06-10T15:27:22.859Z,23.70
2018-06-10T15:28:22.913Z,23.78
2018-06-10T15:29:22.911Z,23.87
2018-06-10T15:32:40.182Z,23.98
2018-06-10T15:33:40.157Z,23.98
2018-06-10T15:34:40.290Z,24.15
2018-06-10T15:35:40.180Z,23.97
2018-06-10T15:38:24.865Z,24.03
2018-06-10T15:41:27.338Z,24.24
2018-06-10T15:51:32.473Z,24.22
2018-06-10T15:52:32.504Z,24.15
2018-06-10T15:53:32.438Z,24.09
2018-06-10T15:54:32.622Z,24.02
2018-06-10T15:55:32.478Z,24.00
2018-06-10T15:56:32.404Z,24.05
2018-06-10T15:57:32.409Z,24.06
2018-06-10T15:58:32.414Z,24.10
2018-06-10T15:59:32.575Z,24.03
2018-06-10T16:00:32.662Z,23.95
2018-06-10T16:01:32.537Z,23.94
2018-06-10T16:02:32.451Z,23.97
2018-06-10T16:03:32.384Z,23.98
2018-06-10T16:04:32.385Z,23.93
2018-06-10T16:05:32.381Z,23.95
2018-06-10T16:06:32.398Z,23.97
2018-06-10T16:07:32.435Z,23.85
2018-06-10T16:08:32.368Z,23.88
2018-06-10T16:09:32.480Z,23.95
2018-06-10T16:10:32.365Z,23.94
2018-06-10T16:11:32.477Z,23.94
2018-06-10T16:12:32.487Z,23.95
2018-06-10T16:13:32.368Z,23.91
2018-06-10T16:14:32.339Z,23.98
2018-06-10T16:15:32.506Z,23.85
2018-06-10T16:16:32.723Z,23.98
2018-06-10T16:17:32.326Z,23.97
2018-06-10T16:18:32.337Z,23.95
2018-06-10T16:19:32.315Z,24.00
2018-06-10T16:20:32.326Z,23.93
2018-06-10T16:21:32.304Z,23.84
2018-06-10T16:25:39.129Z,23.84
2018-06-10T16:26:38.969Z,23.87
2018-06-10T16:27:38.870Z,23.97
2018-06-10T16:28:40.538Z,24.00
2018-06-10T16:29:38.854Z,23.98
2018-06-10T16:30:38.857Z,23.97
2018-06-10T16:31:38.848Z,24.00
2018-06-10T16:32:38.862Z,24.00
2018-06-10T16:33:38.880Z,24.00
2018-06-10T16:34:38.907Z,24.06
2018-06-10T16:35:38.837Z,24.09
2018-06-10T16:36:38.823Z,24.12
2018-06-10T16:37:38.880Z,24.02
2018-06-10T16:38:38.826Z,24.09
2018-06-10T16:39:38.834Z,24.02
2018-06-10T16:40:39.349Z,24.09
2018-06-10T16:41:38.829Z,24.05
2018-06-10T16:42:39.007Z,24.09
2018-06-10T16:43:38.873Z,24.12
2018-06-10T16:44:39.844Z,24.12
2018-06-10T16:45:41.019Z,24.09
2018-06-10T16:47:05.472Z,24.09
2018-06-10T16:47:39.666Z,24.05
2018-06-10T16:48:39.981Z,24.00
2018-06-10T16:49:38.811Z,24.05
2018-06-10T16:53:24.183Z,23.88
2018-06-10T16:54:24.168Z,23.85
2018-06-10T16:55:24.154Z,23.80
2018-06-10T16:57:52.762Z,23.83
2018-06-10T16:58:20.302Z,23.87
2018-06-10T16:58:53.238Z,23.65
2018-06-10T16:59:53.245Z,23.75
2018-06-10T17:01:09.817Z,23.65
2018-06-10T17:01:53.262Z,23.63
2018-06-10T17:02:53.230Z,23.65
2018-06-10T17:03:53.349Z,23.57
2018-06-10T17:06:20.261Z,23.54
2018-06-10T17:06:29.369Z,23.40
2018-06-10T17:07:20.769Z,23.28
2018-06-10T17:08:20.758Z,23.28
2018-06-10T17:09:20.787Z,23.28
2018-06-10T17:10:20.747Z,23.33
2018-06-10T17:11:20.765Z,23.33
2018-06-10T17:12:20.748Z,23.35
2018-06-10T17:13:20.747Z,23.42
2018-06-10T17:14:20.948Z,23.43
2018-06-10T17:23:15.936Z,23.40
2018-06-10T18:33:05.738Z,22.88
2018-06-10T18:33:38.691Z,22.86
2018-06-10T18:34:38.850Z,22.86
2018-06-10T18:35:38.676Z,22.83
2018-06-10T18:36:38.686Z,22.73
2018-06-10T18:37:38.674Z,22.70
2018-06-10T18:38:38.668Z,22.60
2018-06-10T18:39:39.429Z,22.68
2018-06-10T18:40:38.688Z,22.64
2018-06-10T18:41:38.663Z,22.65
2018-06-10T18:42:38.666Z,22.58
2018-06-10T18:43:38.901Z,22.55
2018-06-10T18:44:38.659Z,22.54
2018-06-10T18:45:38.636Z,22.51
2018-06-10T18:46:38.657Z,22.43
2018-06-10T18:47:38.639Z,22.45
2018-06-10T18:48:38.609Z,22.40
2018-06-10T18:49:38.749Z,22.43
2018-06-10T18:50:38.652Z,22.42
2018-06-10T18:51:38.596Z,22.36
2018-06-10T18:52:38.600Z,22.40
2018-06-10T18:53:38.609Z,22.31
2018-06-10T18:54:38.592Z,22.40
2018-06-10T18:55:40.966Z,22.33
2018-06-10T18:56:38.578Z,22.28
2018-06-10T18:57:38.609Z,22.27
2018-06-10T18:58:38.577Z,22.28
2018-06-10T18:59:38.559Z,22.25
2018-06-10T19:00:38.743Z,22.22
2018-06-10T19:01:38.559Z,22.15
2018-06-10T19:02:38.565Z,22.20
2018-06-10T19:03:38.553Z,22.15
2018-06-10T19:04:38.548Z,22.12
2018-06-10T19:05:39.682Z,21.99
2018-06-10T19:06:38.540Z,21.96
2018-06-10T19:07:38.570Z,21.92
2018-06-10T19:08:38.545Z,21.91
2018-06-10T19:09:38.538Z,21.96
2018-06-10T19:10:38.519Z,21.92
2018-06-10T19:11:38.515Z,21.88
2018-06-10T19:12:42.979Z,21.90
2018-06-10T19:13:39.440Z,21.82
2018-06-10T19:14:38.508Z,21.86
2018-06-10T19:15:38.488Z,21.92
2018-06-10T19:16:38.487Z,21.94
2018-06-10T19:19:25.745Z,21.82
2018-06-10T19:20:24.653Z,21.61
2018-06-10T19:21:24.610Z,21.74
2018-06-10T19:22:24.648Z,21.62
2018-06-10T19:23:24.866Z,21.59
2018-06-10T19:24:24.591Z,21.49
2018-06-10T19:25:24.870Z,21.50
2018-06-10T19:26:24.597Z,21.42
2018-06-10T19:27:24.577Z,21.47
2018-06-10T19:28:24.582Z,21.52
2018-06-10T19:29:24.729Z,21.40
2018-06-10T19:30:25.818Z,21.42
2018-06-10T19:31:25.211Z,21.47
2018-06-10T19:32:24.622Z,21.35
2018-06-10T19:33:24.557Z,21.40
2018-06-10T19:34:24.549Z,21.29
2018-06-10T19:35:24.766Z,21.29
2018-06-10T19:36:24.526Z,21.17
2018-06-10T19:37:25.163Z,21.22
2018-06-10T19:38:24.588Z,21.19
2018-06-10T19:46:05.338Z,20.97
2018-06-10T19:46:53.998Z,20.94
2018-06-10T19:48:04.763Z,20.74
2018-06-10T19:48:54.151Z,20.74
2018-06-10T19:49:54.427Z,20.72
2018-06-10T19:50:54.114Z,20.67
2018-06-10T19:51:53.940Z,20.67
2018-06-10T19:52:54.085Z,20.55
2018-06-10T19:53:54.342Z,20.64
2018-06-10T19:54:54.357Z,20.57
2018-06-10T19:55:54.031Z,20.59
2018-06-10T19:56:53.909Z,20.54
2018-06-10T19:57:53.940Z,20.59
2018-06-10T19:58:54.033Z,20.58
2018-06-10T20:00:07.302Z,20.54
2018-06-10T20:00:53.857Z,20.51
2018-06-10T20:01:53.903Z,20.48
2018-06-10T20:06:32.930Z,20.59
2018-06-10T20:07:31.012Z,20.42
2018-06-10T20:08:31.504Z,20.42
2018-06-10T20:09:31.154Z,20.48
2018-06-10T20:10:41.648Z,20.48
2018-06-10T20:11:30.964Z,20.50
2018-06-10T20:12:30.971Z,20.47
2018-06-10T20:13:30.966Z,20.38
2018-06-10T20:15:22.154Z,20.38
2018-06-10T20:15:30.946Z,20.32
2018-06-10T20:16:30.937Z,20.28
2018-06-10T20:17:30.941Z,20.24
2018-06-10T20:19:00.230Z,20.28
2018-06-10T20:19:30.923Z,20.31
2018-06-10T20:31:04.139Z,20.06
2018-06-10T20:31:35.182Z,20.10
2018-06-10T20:32:35.145Z,20.11
2018-06-10T20:33:35.345Z,20.05
2018-06-10T20:34:35.702Z,20.06
2018-06-10T20:35:35.183Z,19.99
2018-06-10T20:36:35.160Z,19.99
2018-06-10T20:37:35.120Z,20.06
2018-06-10T20:38:35.130Z,20.02
2018-06-10T20:39:35.101Z,19.98
2018-06-10T20:40:35.085Z,19.92
2018-06-10T20:41:35.090Z,19.98
2018-06-10T20:42:35.084Z,19.99
2018-06-10T20:43:35.062Z,19.99
2018-06-10T20:44:35.986Z,19.91
2018-06-10T20:45:35.045Z,19.87
2018-06-10T20:46:35.466Z,19.87
2018-06-10T20:47:35.028Z,19.84
2018-06-10T20:48:35.554Z,19.87
2018-06-10T20:49:35.061Z,19.92
2018-06-10T20:50:35.126Z,19.81
2018-06-10T20:51:35.461Z,19.81
2018-06-10T20:52:35.181Z,19.83
2018-06-10T20:53:35.023Z,19.84
2018-06-10T20:54:35.019Z,19.78
2018-06-10T20:55:34.972Z,19.76
2018-06-10T20:56:34.974Z,19.74
2018-06-10T20:57:34.964Z,19.74
2018-06-10T20:58:35.028Z,19.81
2018-06-10T20:59:34.981Z,19.77
2018-06-10T21:00:34.940Z,19.77
2018-06-10T21:01:34.934Z,19.78
2018-06-10T21:02:34.923Z,19.68
2018-06-10T21:03:34.930Z,19.74
2018-06-10T21:04:35.047Z,19.66
2018-06-10T21:05:34.936Z,19.62
2018-06-10T21:06:34.951Z,19.61
2018-06-10T21:07:34.888Z,19.61
2018-06-10T21:08:34.884Z,19.63
2018-06-10T21:09:35.253Z,19.65
2018-06-10T21:11:07.490Z,19.61
2018-06-10T21:11:34.864Z,19.63
2018-06-10T21:12:34.856Z,19.66
2018-06-10T21:13:34.856Z,19.62
2018-06-10T21:14:34.918Z,19.56
2018-06-10T21:17:10.820Z,19.55
2018-06-10T21:20:44.973Z,19.46
2018-06-10T21:21:17.812Z,19.44
2018-06-10T21:22:17.811Z,19.48
2018-06-10T21:24:44.828Z,19.44
2018-06-10T21:25:12.337Z,19.43
2018-06-10T21:25:45.352Z,19.44
2018-06-10T21:26:45.317Z,19.41
2018-06-10T21:27:45.305Z,19.50
2018-06-10T21:34:34.403Z,19.40
2018-06-10T21:39:48.119Z,19.29
2018-06-10T21:40:20.949Z,19.26
2018-06-10T21:41:20.933Z,19.31
2018-06-10T21:42:20.954Z,19.21
2018-06-10T21:43:20.934Z,19.21
2018-06-10T21:44:20.919Z,19.18
2018-06-10T21:45:20.940Z,19.07
2018-06-10T21:46:20.903Z,19.14
2018-06-10T21:47:20.901Z,19.02
2018-06-10T21:48:20.883Z,19.08
2018-06-10T21:49:20.889Z,19.08
2018-06-10T21:50:20.869Z,18.94
2018-06-10T21:51:21.008Z,19.07
2018-06-10T21:52:20.862Z,19.08
2018-06-10T21:53:20.900Z,19.10
2018-06-10T21:54:20.930Z,19.11
2018-06-10T21:55:20.855Z,19.08
2018-06-10T21:56:20.848Z,19.07
2018-06-10T21:57:20.863Z,19.10
2018-06-10T21:58:20.854Z,19.18
2018-06-10T21:59:20.807Z,19.06
2018-06-10T22:00:20.789Z,19.11
2018-06-10T22:01:20.916Z,19.25
2018-06-10T22:02:20.859Z,19.18
2018-06-10T22:03:20.780Z,19.14
2018-06-10T22:04:20.775Z,19.18
2018-06-10T22:05:20.752Z,19.21
2018-06-10T22:06:20.747Z,19.21
2018-06-10T22:07:20.738Z,19.18
2018-06-10T22:08:20.965Z,19.23
2018-06-10T22:09:21.284Z,19.18
2018-06-10T22:10:20.724Z,19.13
2018-06-10T22:11:20.713Z,19.25
2018-06-10T22:12:20.698Z,19.16
2018-06-10T22:13:20.703Z,19.19
2018-06-10T22:14:20.710Z,19.18
2018-06-10T22:15:21.452Z,19.19
2018-06-10T22:16:20.674Z,19.23
2018-06-10T22:17:20.991Z,19.22
2018-06-10T22:18:20.660Z,19.16
2018-06-10T22:19:20.691Z,19.23
2018-06-10T22:20:20.786Z,19.19
2018-06-10T22:21:20.649Z,19.19
2018-06-10T22:22:20.630Z,19.16
2018-06-10T22:23:20.649Z,19.13
2018-06-10T22:24:20.618Z,19.21
2018-06-10T22:25:20.756Z,19.16
2018-06-10T22:26:20.609Z,19.19
2018-06-10T22:27:21.282Z,19.13
2018-06-10T22:28:20.589Z,19.16
2018-06-10T22:29:20.574Z,19.22
2018-06-10T22:30:20.583Z,19.22
2018-06-10T22:31:20.575Z,19.23
2018-06-10T22:32:20.566Z,19.19
2018-06-10T22:33:20.595Z,19.19
2018-06-10T22:34:20.545Z,19.16
2018-06-10T22:35:20.525Z,19.22
2018-06-10T22:36:20.572Z,19.25
2018-06-10T22:37:21.290Z,19.26
2018-06-10T22:38:20.525Z,19.28
2018-06-10T22:39:20.505Z,19.23
2018-06-10T22:40:20.493Z,19.19
2018-06-10T22:41:20.601Z,19.18
2018-06-10T22:42:20.499Z,19.19
2018-06-10T22:43:20.479Z,19.16
2018-06-10T22:44:20.469Z,19.10
2018-06-10T22:45:20.460Z,19.08
2018-06-10T22:46:20.480Z,19.19
2018-06-10T22:47:20.440Z,19.22
2018-06-10T22:48:20.439Z,19.11
2018-06-10T22:49:20.462Z,19.02
2018-06-10T22:50:21.290Z,19.04
2018-06-10T22:51:20.414Z,19.02
2018-06-10T22:52:20.447Z,18.98
2018-06-10T22:53:20.403Z,18.95
2018-06-10T22:54:20.397Z,19.04
2018-06-10T22:55:20.391Z,19.07
2018-06-10T22:59:04.643Z,19.02
2018-06-10T23:00:03.199Z,18.88
2018-06-10T23:01:03.185Z,18.92
2018-06-10T23:02:03.174Z,18.88
2018-06-10T23:03:03.946Z,18.92
2018-06-10T23:04:03.154Z,18.87
2018-06-10T23:05:03.188Z,18.90
2018-06-10T23:06:03.138Z,18.90
2018-06-10T23:07:03.255Z,18.88
2018-06-10T23:08:03.170Z,18.82
2018-06-10T23:09:03.120Z,18.81
2018-06-10T23:10:03.159Z,18.94
2018-06-10T23:11:03.115Z,18.92
2018-06-10T23:12:03.151Z,18.90
2018-06-10T23:13:03.479Z,18.95
2018-06-10T23:14:03.081Z,18.99
2018-06-10T23:15:03.087Z,18.91
2018-06-10T23:16:03.063Z,18.91
2018-06-10T23:17:03.115Z,18.99
2018-06-10T23:18:03.082Z,18.90
2018-06-10T23:19:03.043Z,18.99
2018-06-10T23:20:03.041Z,18.94
2018-06-10T23:21:12.597Z,18.92
2018-06-10T23:22:03.124Z,18.88
2018-06-10T23:23:03.008Z,18.85
2018-06-10T23:24:03.030Z,18.80
2018-06-10T23:25:03.028Z,18.84
2018-06-10T23:26:03.006Z,18.90
2018-06-10T23:28:35.796Z,18.80
2018-06-10T23:33:22.865Z,18.55
2018-06-10T23:34:22.856Z,18.62
2018-06-10T23:35:22.850Z,18.62
2018-06-10T23:36:23.211Z,18.54
2018-06-10T23:37:22.861Z,18.60